sensor_id;sensor_type;location;lat;lon;timestamp;P1;durP1;ratioP1;P2;durP2;ratioP2
12631;SDS011;6381;45.748;12.106;2023-02-15T00:01:52;38.40;;;32.43;;
12631;SDS011;6381;45.748;12.106;2023-02-15T00:04:41;39.63;;;33.77;;
12631;SDS011;6381;45.748;12.106;2023-02-15T00:07:17;40.30;;;33.03;;
12631;SDS011;6381;45.748;12.106;2023-02-15T00:09:48;41.23;;;34.27;;
12631;SDS011;6381;45.748;12.106;2023-02-15T00:12:18;41.60;;;34.10;;
12631;SDS011;6381;45.748;12.106;2023-02-15T00:14:47;40.23;;;34.80;;
12631;SDS011;6381;45.748;12.106;2023-02-15T00:17:33;43.60;;;37.90;;
12631;SDS011;6381;45.748;12.106;2023-02-15T00:20:02;41.17;;;35.27;;
12631;SDS011;6381;45.748;12.106;2023-02-15T00:22:32;40.47;;;36.07;;
12631;SDS011;6381;45.748;12.106;2023-02-15T00:25:02;39.23;;;31.97;;
12631;SDS011;6381;45.748;12.106;2023-02-15T00:27:32;40.03;;;32.23;;
12631;SDS011;6381;45.748;12.106;2023-02-15T00:30:02;40.27;;;32.30;;
12631;SDS011;6381;45.748;12.106;2023-02-15T00:32:32;37.37;;;31.03;;
12631;SDS011;6381;45.748;12.106;2023-02-15T00:35:19;38.27;;;32.07;;
12631;SDS011;6381;45.748;12.106;2023-02-15T00:37:48;39.43;;;32.87;;
12631;SDS011;6381;45.748;12.106;2023-02-15T00:40:54;37.30;;;32.10;;
12631;SDS011;6381;45.748;12.106;2023-02-15T00:43:24;34.83;;;30.87;;
12631;SDS011;6381;45.748;12.106;2023-02-15T00:45:54;38.13;;;29.73;;
12631;SDS011;6381;45.748;12.106;2023-02-15T00:48:41;40.07;;;32.93;;
12631;SDS011;6381;45.748;12.106;2023-02-15T00:51:27;36.60;;;30.60;;
12631;SDS011;6381;45.748;12.106;2023-02-15T00:53:56;40.10;;;32.03;;
12631;SDS011;6381;45.748;12.106;2023-02-15T00:56:27;35.13;;;28.60;;
12631;SDS011;6381;45.748;12.106;2023-02-15T00:58:56;35.27;;;29.23;;
12631;SDS011;6381;45.748;12.106;2023-02-15T01:01:26;33.53;;;27.10;;
12631;SDS011;6381;45.748;12.106;2023-02-15T01:03:56;35.13;;;27.60;;
12631;SDS011;6381;45.748;12.106;2023-02-15T01:06:28;34.83;;;27.13;;
12631;SDS011;6381;45.748;12.106;2023-02-15T01:09:16;38.73;;;28.87;;
12631;SDS011;6381;45.748;12.106;2023-02-15T01:11:46;40.70;;;30.13;;
12631;SDS011;6381;45.748;12.106;2023-02-15T01:14:15;45.07;;;31.37;;
12631;SDS011;6381;45.748;12.106;2023-02-15T01:16:45;47.10;;;32.90;;
12631;SDS011;6381;45.748;12.106;2023-02-15T01:19:14;51.70;;;34.40;;
12631;SDS011;6381;45.748;12.106;2023-02-15T01:21:43;39.40;;;29.23;;
12631;SDS011;6381;45.748;12.106;2023-02-15T01:24:29;34.23;;;26.33;;
12631;SDS011;6381;45.748;12.106;2023-02-15T01:27:03;33.10;;;24.20;;
12631;SDS011;6381;45.748;12.106;2023-02-15T01:29:32;29.17;;;24.00;;
12631;SDS011;6381;45.748;12.106;2023-02-15T01:32:01;31.30;;;26.47;;
12631;SDS011;6381;45.748;12.106;2023-02-15T01:34:30;31.83;;;25.83;;
12631;SDS011;6381;45.748;12.106;2023-02-15T01:37:00;29.00;;;24.27;;
12631;SDS011;6381;45.748;12.106;2023-02-15T01:39:29;31.80;;;25.27;;
12631;SDS011;6381;45.748;12.106;2023-02-15T01:41:58;28.40;;;25.30;;
12631;SDS011;6381;45.748;12.106;2023-02-15T01:44:48;33.07;;;25.07;;
12631;SDS011;6381;45.748;12.106;2023-02-15T01:47:36;27.40;;;23.50;;
12631;SDS011;6381;45.748;12.106;2023-02-15T01:50:10;26.50;;;23.70;;
12631;SDS011;6381;45.748;12.106;2023-02-15T01:52:44;25.57;;;22.30;;
12631;SDS011;6381;45.748;12.106;2023-02-15T01:55:17;26.70;;;21.87;;
12631;SDS011;6381;45.748;12.106;2023-02-15T01:57:47;24.50;;;19.93;;
12631;SDS011;6381;45.748;12.106;2023-02-15T02:00:19;26.00;;;20.53;;
12631;SDS011;6381;45.748;12.106;2023-02-15T02:02:49;26.03;;;19.57;;
12631;SDS011;6381;45.748;12.106;2023-02-15T02:05:24;23.43;;;19.10;;
12631;SDS011;6381;45.748;12.106;2023-02-15T02:08:11;24.80;;;20.07;;
12631;SDS011;6381;45.748;12.106;2023-02-15T02:10:41;23.43;;;20.20;;
12631;SDS011;6381;45.748;12.106;2023-02-15T02:13:12;23.57;;;18.83;;
12631;SDS011;6381;45.748;12.106;2023-02-15T02:15:44;20.90;;;17.07;;
12631;SDS011;6381;45.748;12.106;2023-02-15T02:18:37;21.50;;;17.03;;
12631;SDS011;6381;45.748;12.106;2023-02-15T02:24:35;20.40;;;18.30;;
12631;SDS011;6381;45.748;12.106;2023-02-15T02:27:37;20.47;;;18.20;;
12631;SDS011;6381;45.748;12.106;2023-02-15T02:33:21;21.50;;;18.70;;
12631;SDS011;6381;45.748;12.106;2023-02-15T02:36:08;20.50;;;17.33;;
12631;SDS011;6381;45.748;12.106;2023-02-15T02:38:48;20.23;;;18.10;;
12631;SDS011;6381;45.748;12.106;2023-02-15T02:41:37;21.87;;;18.53;;
12631;SDS011;6381;45.748;12.106;2023-02-15T02:44:13;19.67;;;17.57;;
12631;SDS011;6381;45.748;12.106;2023-02-15T02:46:48;20.07;;;17.57;;
12631;SDS011;6381;45.748;12.106;2023-02-15T02:49:35;21.67;;;18.67;;
12631;SDS011;6381;45.748;12.106;2023-02-15T02:52:06;20.57;;;18.00;;
12631;SDS011;6381;45.748;12.106;2023-02-15T02:54:57;19.60;;;16.93;;
12631;SDS011;6381;45.748;12.106;2023-02-15T02:57:27;18.50;;;16.50;;
12631;SDS011;6381;45.748;12.106;2023-02-15T02:59:58;18.40;;;16.07;;
12631;SDS011;6381;45.748;12.106;2023-02-15T03:02:30;19.33;;;16.93;;
12631;SDS011;6381;45.748;12.106;2023-02-15T03:05:21;21.53;;;16.73;;
12631;SDS011;6381;45.748;12.106;2023-02-15T03:07:54;22.07;;;17.23;;
12631;SDS011;6381;45.748;12.106;2023-02-15T03:10:26;19.57;;;16.73;;
12631;SDS011;6381;45.748;12.106;2023-02-15T03:12:56;21.27;;;17.63;;
12631;SDS011;6381;45.748;12.106;2023-02-15T03:15:26;18.17;;;16.10;;
12631;SDS011;6381;45.748;12.106;2023-02-15T03:18:18;19.07;;;15.83;;
12631;SDS011;6381;45.748;12.106;2023-02-15T03:21:08;17.93;;;15.83;;
12631;SDS011;6381;45.748;12.106;2023-02-15T03:24:08;18.43;;;16.53;;
12631;SDS011;6381;45.748;12.106;2023-02-15T03:26:45;21.03;;;17.23;;
12631;SDS011;6381;45.748;12.106;2023-02-15T03:29:18;26.50;;;18.60;;
12631;SDS011;6381;45.748;12.106;2023-02-15T03:31:51;28.23;;;19.33;;
12631;SDS011;6381;45.748;12.106;2023-02-15T03:34:23;33.13;;;23.20;;
12631;SDS011;6381;45.748;12.106;2023-02-15T03:37:10;31.00;;;22.40;;
12631;SDS011;6381;45.748;12.106;2023-02-15T03:39:47;28.13;;;20.00;;
12631;SDS011;6381;45.748;12.106;2023-02-15T03:42:24;24.10;;;19.37;;
12631;SDS011;6381;45.748;12.106;2023-02-15T03:44:56;22.27;;;17.60;;
12631;SDS011;6381;45.748;12.106;2023-02-15T03:47:47;20.97;;;17.50;;
12631;SDS011;6381;45.748;12.106;2023-02-15T03:50:19;21.93;;;18.33;;
12631;SDS011;6381;45.748;12.106;2023-02-15T03:53:17;22.63;;;18.33;;
12631;SDS011;6381;45.748;12.106;2023-02-15T03:55:49;26.33;;;18.87;;
12631;SDS011;6381;45.748;12.106;2023-02-15T03:58:23;20.33;;;17.57;;
12631;SDS011;6381;45.748;12.106;2023-02-15T04:01:10;20.83;;;18.63;;
12631;SDS011;6381;45.748;12.106;2023-02-15T04:04:06;21.70;;;17.97;;
12631;SDS011;6381;45.748;12.106;2023-02-15T04:06:38;21.60;;;19.03;;
12631;SDS011;6381;45.748;12.106;2023-02-15T04:09:26;20.80;;;18.60;;
12631;SDS011;6381;45.748;12.106;2023-02-15T04:12:12;26.57;;;20.70;;
12631;SDS011;6381;45.748;12.106;2023-02-15T04:14:43;23.13;;;20.63;;
12631;SDS011;6381;45.748;12.106;2023-02-15T04:17:29;25.13;;;20.33;;
12631;SDS011;6381;45.748;12.106;2023-02-15T04:19:58;24.57;;;19.93;;
12631;SDS011;6381;45.748;12.106;2023-02-15T04:22:44;32.23;;;24.40;;
12631;SDS011;6381;45.748;12.106;2023-02-15T04:25:30;30.10;;;24.53;;
12631;SDS011;6381;45.748;12.106;2023-02-15T04:27:59;28.13;;;23.83;;
12631;SDS011;6381;45.748;12.106;2023-02-15T04:30:30;28.47;;;22.57;;
12631;SDS011;6381;45.748;12.106;2023-02-15T04:32:59;33.17;;;24.43;;
12631;SDS011;6381;45.748;12.106;2023-02-15T04:35:27;34.40;;;26.17;;
12631;SDS011;6381;45.748;12.106;2023-02-15T04:37:58;36.07;;;27.87;;
12631;SDS011;6381;45.748;12.106;2023-02-15T04:40:27;33.50;;;27.00;;
12631;SDS011;6381;45.748;12.106;2023-02-15T04:42:56;33.87;;;26.83;;
12631;SDS011;6381;45.748;12.106;2023-02-15T04:45:25;34.60;;;26.67;;
12631;SDS011;6381;45.748;12.106;2023-02-15T04:47:56;37.00;;;27.07;;
12631;SDS011;6381;45.748;12.106;2023-02-15T04:50:25;35.07;;;27.90;;
12631;SDS011;6381;45.748;12.106;2023-02-15T04:52:54;37.07;;;29.90;;
12631;SDS011;6381;45.748;12.106;2023-02-15T04:55:23;32.50;;;26.13;;
12631;SDS011;6381;45.748;12.106;2023-02-15T04:57:53;37.07;;;27.43;;
12631;SDS011;6381;45.748;12.106;2023-02-15T05:00:39;34.00;;;26.37;;
12631;SDS011;6381;45.748;12.106;2023-02-15T05:03:10;35.83;;;27.83;;
12631;SDS011;6381;45.748;12.106;2023-02-15T05:05:39;39.20;;;28.83;;
12631;SDS011;6381;45.748;12.106;2023-02-15T05:08:07;37.37;;;26.93;;
12631;SDS011;6381;45.748;12.106;2023-02-15T05:10:36;34.77;;;27.70;;
12631;SDS011;6381;45.748;12.106;2023-02-15T05:13:05;33.87;;;26.87;;
12631;SDS011;6381;45.748;12.106;2023-02-15T05:15:34;35.67;;;25.90;;
12631;SDS011;6381;45.748;12.106;2023-02-15T05:18:04;28.10;;;23.47;;
12631;SDS011;6381;45.748;12.106;2023-02-15T05:20:35;36.53;;;25.63;;
12631;SDS011;6381;45.748;12.106;2023-02-15T05:23:04;36.30;;;25.00;;
12631;SDS011;6381;45.748;12.106;2023-02-15T05:26:09;34.93;;;24.50;;
12631;SDS011;6381;45.748;12.106;2023-02-15T05:29:13;33.07;;;25.10;;
12631;SDS011;6381;45.748;12.106;2023-02-15T05:32:17;35.93;;;26.50;;
12631;SDS011;6381;45.748;12.106;2023-02-15T05:35:04;40.20;;;32.57;;
12631;SDS011;6381;45.748;12.106;2023-02-15T05:37:35;39.57;;;33.80;;
12631;SDS011;6381;45.748;12.106;2023-02-15T05:40:05;47.80;;;34.43;;
12631;SDS011;6381;45.748;12.106;2023-02-15T05:42:35;54.97;;;39.80;;
12631;SDS011;6381;45.748;12.106;2023-02-15T05:45:05;49.97;;;38.73;;
12631;SDS011;6381;45.748;12.106;2023-02-15T05:47:34;54.07;;;39.40;;
12631;SDS011;6381;45.748;12.106;2023-02-15T05:50:04;46.17;;;35.10;;
12631;SDS011;6381;45.748;12.106;2023-02-15T05:52:35;49.03;;;36.73;;
12631;SDS011;6381;45.748;12.106;2023-02-15T05:55:05;46.30;;;34.37;;
12631;SDS011;6381;45.748;12.106;2023-02-15T05:57:51;47.27;;;35.17;;
12631;SDS011;6381;45.748;12.106;2023-02-15T06:00:20;44.80;;;31.47;;
12631;SDS011;6381;45.748;12.106;2023-02-15T06:02:50;46.03;;;30.63;;
12631;SDS011;6381;45.748;12.106;2023-02-15T06:05:19;41.70;;;29.17;;
12631;SDS011;6381;45.748;12.106;2023-02-15T06:07:49;38.37;;;27.93;;
12631;SDS011;6381;45.748;12.106;2023-02-15T06:10:18;35.13;;;24.60;;
12631;SDS011;6381;45.748;12.106;2023-02-15T06:12:47;32.33;;;24.57;;
12631;SDS011;6381;45.748;12.106;2023-02-15T06:15:35;27.03;;;20.80;;
12631;SDS011;6381;45.748;12.106;2023-02-15T06:18:04;34.60;;;23.73;;
12631;SDS011;6381;45.748;12.106;2023-02-15T06:20:33;28.33;;;21.87;;
12631;SDS011;6381;45.748;12.106;2023-02-15T06:23:04;23.60;;;19.40;;
12631;SDS011;6381;45.748;12.106;2023-02-15T06:25:33;33.57;;;21.67;;
12631;SDS011;6381;45.748;12.106;2023-02-15T06:28:05;28.13;;;21.53;;
12631;SDS011;6381;45.748;12.106;2023-02-15T06:30:51;31.73;;;21.10;;
12631;SDS011;6381;45.748;12.106;2023-02-15T06:33:38;33.30;;;23.27;;
12631;SDS011;6381;45.748;12.106;2023-02-15T06:36:06;68.37;;;38.97;;
12631;SDS011;6381;45.748;12.106;2023-02-15T06:38:37;78.50;;;45.40;;
12631;SDS011;6381;45.748;12.106;2023-02-15T06:41:24;40.63;;;24.43;;
12631;SDS011;6381;45.748;12.106;2023-02-15T06:43:53;35.13;;;22.40;;
12631;SDS011;6381;45.748;12.106;2023-02-15T06:46:39;38.60;;;22.10;;
12631;SDS011;6381;45.748;12.106;2023-02-15T06:49:08;33.17;;;21.37;;
12631;SDS011;6381;45.748;12.106;2023-02-15T06:51:37;32.93;;;21.63;;
12631;SDS011;6381;45.748;12.106;2023-02-15T06:54:08;29.53;;;23.03;;
12631;SDS011;6381;45.748;12.106;2023-02-15T06:56:37;33.73;;;23.50;;
12631;SDS011;6381;45.748;12.106;2023-02-15T06:59:06;39.97;;;25.00;;
12631;SDS011;6381;45.748;12.106;2023-02-15T07:01:35;35.07;;;24.10;;
12631;SDS011;6381;45.748;12.106;2023-02-15T07:04:21;40.60;;;26.30;;
12631;SDS011;6381;45.748;12.106;2023-02-15T07:07:07;40.13;;;26.60;;
12631;SDS011;6381;45.748;12.106;2023-02-15T07:09:39;42.47;;;27.17;;
12631;SDS011;6381;45.748;12.106;2023-02-15T07:12:08;44.80;;;27.37;;
12631;SDS011;6381;45.748;12.106;2023-02-15T07:14:54;45.83;;;32.57;;
12631;SDS011;6381;45.748;12.106;2023-02-15T07:17:25;46.97;;;34.97;;
12631;SDS011;6381;45.748;12.106;2023-02-15T07:20:20;37.20;;;29.40;;
12631;SDS011;6381;45.748;12.106;2023-02-15T07:22:51;35.50;;;25.77;;
12631;SDS011;6381;45.748;12.106;2023-02-15T07:25:21;32.90;;;25.60;;
12631;SDS011;6381;45.748;12.106;2023-02-15T07:27:54;32.33;;;25.13;;
12631;SDS011;6381;45.748;12.106;2023-02-15T07:30:24;27.17;;;21.50;;
12631;SDS011;6381;45.748;12.106;2023-02-15T07:32:54;34.40;;;23.27;;
12631;SDS011;6381;45.748;12.106;2023-02-15T07:35:59;42.73;;;23.73;;
12631;SDS011;6381;45.748;12.106;2023-02-15T07:38:46;31.10;;;23.03;;
12631;SDS011;6381;45.748;12.106;2023-02-15T07:41:35;37.10;;;21.37;;
12631;SDS011;6381;45.748;12.106;2023-02-15T07:44:11;29.13;;;20.43;;
12631;SDS011;6381;45.748;12.106;2023-02-15T07:46:58;30.23;;;21.70;;
12631;SDS011;6381;45.748;12.106;2023-02-15T07:49:28;31.10;;;22.33;;
12631;SDS011;6381;45.748;12.106;2023-02-15T07:51:57;33.57;;;23.47;;
12631;SDS011;6381;45.748;12.106;2023-02-15T07:54:28;37.50;;;23.60;;
12631;SDS011;6381;45.748;12.106;2023-02-15T07:56:59;34.20;;;23.70;;
12631;SDS011;6381;45.748;12.106;2023-02-15T07:59:28;31.73;;;23.93;;
12631;SDS011;6381;45.748;12.106;2023-02-15T08:01:58;30.30;;;22.50;;
12631;SDS011;6381;45.748;12.106;2023-02-15T08:04:27;28.93;;;20.97;;
12631;SDS011;6381;45.748;12.106;2023-02-15T08:06:56;29.07;;;21.60;;
12631;SDS011;6381;45.748;12.106;2023-02-15T08:09:25;28.97;;;20.93;;
12631;SDS011;6381;45.748;12.106;2023-02-15T08:11:54;29.83;;;20.87;;
12631;SDS011;6381;45.748;12.106;2023-02-15T08:14:24;28.10;;;21.03;;
12631;SDS011;6381;45.748;12.106;2023-02-15T08:16:55;27.83;;;20.93;;
12631;SDS011;6381;45.748;12.106;2023-02-15T08:19:30;27.43;;;19.87;;
12631;SDS011;6381;45.748;12.106;2023-02-15T08:22:02;30.90;;;21.50;;
12631;SDS011;6381;45.748;12.106;2023-02-15T08:24:49;28.43;;;22.23;;
12631;SDS011;6381;45.748;12.106;2023-02-15T08:27:18;33.53;;;23.47;;
12631;SDS011;6381;45.748;12.106;2023-02-15T08:29:54;32.83;;;23.37;;
12631;SDS011;6381;45.748;12.106;2023-02-15T08:32:24;30.00;;;22.93;;
12631;SDS011;6381;45.748;12.106;2023-02-15T08:34:53;33.93;;;24.20;;
12631;SDS011;6381;45.748;12.106;2023-02-15T08:37:22;30.73;;;23.83;;
12631;SDS011;6381;45.748;12.106;2023-02-15T08:40:11;31.50;;;23.50;;
12631;SDS011;6381;45.748;12.106;2023-02-15T08:42:41;30.87;;;23.43;;
12631;SDS011;6381;45.748;12.106;2023-02-15T08:45:11;34.67;;;23.63;;
12631;SDS011;6381;45.748;12.106;2023-02-15T08:47:59;31.13;;;21.83;;
12631;SDS011;6381;45.748;12.106;2023-02-15T08:50:28;32.70;;;22.27;;
12631;SDS011;6381;45.748;12.106;2023-02-15T08:52:57;27.87;;;21.13;;
12631;SDS011;6381;45.748;12.106;2023-02-15T08:55:26;26.90;;;20.23;;
12631;SDS011;6381;45.748;12.106;2023-02-15T08:57:56;29.53;;;21.43;;
12631;SDS011;6381;45.748;12.106;2023-02-15T09:00:44;24.33;;;19.00;;
12631;SDS011;6381;45.748;12.106;2023-02-15T09:03:14;25.20;;;18.07;;
12631;SDS011;6381;45.748;12.106;2023-02-15T09:05:43;27.30;;;19.03;;
12631;SDS011;6381;45.748;12.106;2023-02-15T09:08:12;25.60;;;18.17;;
12631;SDS011;6381;45.748;12.106;2023-02-15T09:10:41;36.10;;;25.53;;
12631;SDS011;6381;45.748;12.106;2023-02-15T09:13:10;38.27;;;28.40;;
12631;SDS011;6381;45.748;12.106;2023-02-15T09:15:39;33.50;;;27.17;;
12631;SDS011;6381;45.748;12.106;2023-02-15T09:18:10;34.40;;;26.37;;
12631;SDS011;6381;45.748;12.106;2023-02-15T09:20:43;34.60;;;25.43;;
12631;SDS011;6381;45.748;12.106;2023-02-15T09:23:12;33.13;;;23.60;;
12631;SDS011;6381;45.748;12.106;2023-02-15T09:25:52;29.67;;;22.00;;
12631;SDS011;6381;45.748;12.106;2023-02-15T09:28:22;31.20;;;21.87;;
12631;SDS011;6381;45.748;12.106;2023-02-15T09:30:51;29.67;;;22.70;;
12631;SDS011;6381;45.748;12.106;2023-02-15T09:33:21;29.83;;;21.67;;
12631;SDS011;6381;45.748;12.106;2023-02-15T09:35:52;28.63;;;22.10;;
12631;SDS011;6381;45.748;12.106;2023-02-15T09:38:21;32.37;;;22.80;;
12631;SDS011;6381;45.748;12.106;2023-02-15T09:40:52;28.47;;;21.87;;
12631;SDS011;6381;45.748;12.106;2023-02-15T09:43:33;31.73;;;22.60;;
12631;SDS011;6381;45.748;12.106;2023-02-15T09:46:15;30.67;;;21.40;;
12631;SDS011;6381;45.748;12.106;2023-02-15T09:49:17;29.63;;;22.20;;
12631;SDS011;6381;45.748;12.106;2023-02-15T09:55:21;28.93;;;21.10;;
12631;SDS011;6381;45.748;12.106;2023-02-15T09:58:04;30.23;;;21.33;;
12631;SDS011;6381;45.748;12.106;2023-02-15T10:00:41;28.80;;;21.57;;
12631;SDS011;6381;45.748;12.106;2023-02-15T10:03:32;29.37;;;21.80;;
12631;SDS011;6381;45.748;12.106;2023-02-15T10:06:30;33.87;;;23.17;;
12631;SDS011;6381;45.748;12.106;2023-02-15T10:18:05;29.43;;;22.60;;
12631;SDS011;6381;45.748;12.106;2023-02-15T10:20:53;27.10;;;21.80;;
12631;SDS011;6381;45.748;12.106;2023-02-15T10:26:44;26.33;;;20.37;;
12631;SDS011;6381;45.748;12.106;2023-02-15T10:29:17;28.03;;;21.47;;
12631;SDS011;6381;45.748;12.106;2023-02-15T10:31:57;26.67;;;21.17;;
12631;SDS011;6381;45.748;12.106;2023-02-15T10:34:35;26.53;;;20.67;;
12631;SDS011;6381;45.748;12.106;2023-02-15T10:37:11;27.17;;;20.33;;
12631;SDS011;6381;45.748;12.106;2023-02-15T10:40:07;32.70;;;23.00;;
12631;SDS011;6381;45.748;12.106;2023-02-15T10:43:05;28.90;;;21.73;;
12631;SDS011;6381;45.748;12.106;2023-02-15T10:45:55;31.03;;;22.87;;
12631;SDS011;6381;45.748;12.106;2023-02-15T10:48:34;29.10;;;23.57;;
12631;SDS011;6381;45.748;12.106;2023-02-15T10:51:14;28.60;;;21.83;;
12631;SDS011;6381;45.748;12.106;2023-02-15T10:54:09;27.37;;;21.87;;
12631;SDS011;6381;45.748;12.106;2023-02-15T10:56:52;32.27;;;23.60;;
12631;SDS011;6381;45.748;12.106;2023-02-15T10:59:46;31.27;;;23.50;;
12631;SDS011;6381;45.748;12.106;2023-02-15T11:02:29;30.50;;;21.70;;
12631;SDS011;6381;45.748;12.106;2023-02-15T11:05:26;29.97;;;22.17;;
12631;SDS011;6381;45.748;12.106;2023-02-15T11:08:07;28.73;;;22.60;;
12631;SDS011;6381;45.748;12.106;2023-02-15T11:10:39;31.70;;;22.50;;
12631;SDS011;6381;45.748;12.106;2023-02-15T11:13:13;24.95;;;21.15;;
12631;SDS011;6381;45.748;12.106;2023-02-15T11:16:04;33.92;;;22.83;;
12631;SDS011;6381;45.748;12.106;2023-02-15T11:18:37;31.17;;;23.43;;
12631;SDS011;6381;45.748;12.106;2023-02-15T11:21:29;29.00;;;22.97;;
12631;SDS011;6381;45.748;12.106;2023-02-15T11:24:07;31.98;;;24.10;;
12631;SDS011;6381;45.748;12.106;2023-02-15T11:26:56;29.33;;;23.50;;
12631;SDS011;6381;45.748;12.106;2023-02-15T11:29:52;32.75;;;26.13;;
12631;SDS011;6381;45.748;12.106;2023-02-15T11:32:46;30.50;;;23.77;;
12631;SDS011;6381;45.748;12.106;2023-02-15T11:35:20;29.70;;;22.27;;
12631;SDS011;6381;45.748;12.106;2023-02-15T11:37:54;28.45;;;22.80;;
12631;SDS011;6381;45.748;12.106;2023-02-15T11:40:30;28.65;;;23.02;;
12631;SDS011;6381;45.748;12.106;2023-02-15T11:43:02;30.60;;;23.52;;
12631;SDS011;6381;45.748;12.106;2023-02-15T11:45:36;29.27;;;22.75;;
12631;SDS011;6381;45.748;12.106;2023-02-15T11:48:08;29.23;;;23.98;;
12631;SDS011;6381;45.748;12.106;2023-02-15T11:50:39;30.27;;;23.50;;
12631;SDS011;6381;45.748;12.106;2023-02-15T11:53:11;30.85;;;24.05;;
12631;SDS011;6381;45.748;12.106;2023-02-15T11:55:43;29.48;;;22.25;;
12631;SDS011;6381;45.748;12.106;2023-02-15T11:58:16;26.67;;;21.48;;
12631;SDS011;6381;45.748;12.106;2023-02-15T12:00:58;26.80;;;21.25;;
12631;SDS011;6381;45.748;12.106;2023-02-15T12:03:50;28.05;;;20.15;;
12631;SDS011;6381;45.748;12.106;2023-02-15T12:06:22;25.20;;;20.65;;
12631;SDS011;6381;45.748;12.106;2023-02-15T12:08:59;26.42;;;20.38;;
12631;SDS011;6381;45.748;12.106;2023-02-15T12:11:35;26.95;;;20.98;;
12631;SDS011;6381;45.748;12.106;2023-02-15T12:14:06;26.65;;;20.65;;
12631;SDS011;6381;45.748;12.106;2023-02-15T12:16:55;24.50;;;20.00;;
12631;SDS011;6381;45.748;12.106;2023-02-15T12:19:42;28.20;;;22.45;;
12631;SDS011;6381;45.748;12.106;2023-02-15T12:22:18;26.02;;;19.73;;
12631;SDS011;6381;45.748;12.106;2023-02-15T12:25:19;29.35;;;21.48;;
12631;SDS011;6381;45.748;12.106;2023-02-15T12:27:50;25.75;;;20.80;;
12631;SDS011;6381;45.748;12.106;2023-02-15T12:30:22;29.77;;;20.27;;
12631;SDS011;6381;45.748;12.106;2023-02-15T12:32:58;29.23;;;19.35;;
12631;SDS011;6381;45.748;12.106;2023-02-15T12:35:35;23.90;;;19.80;;
12631;SDS011;6381;45.748;12.106;2023-02-15T12:38:05;23.02;;;19.33;;
12631;SDS011;6381;45.748;12.106;2023-02-15T12:41:22;22.83;;;19.80;;
12631;SDS011;6381;45.748;12.106;2023-02-15T12:44:02;25.42;;;21.10;;
12631;SDS011;6381;45.748;12.106;2023-02-15T12:46:40;26.35;;;20.67;;
12631;SDS011;6381;45.748;12.106;2023-02-15T12:49:16;28.52;;;21.30;;
12631;SDS011;6381;45.748;12.106;2023-02-15T12:51:47;26.55;;;21.02;;
12631;SDS011;6381;45.748;12.106;2023-02-15T12:54:25;28.25;;;21.05;;
12631;SDS011;6381;45.748;12.106;2023-02-15T12:57:25;29.13;;;21.65;;
12631;SDS011;6381;45.748;12.106;2023-02-15T12:59:56;28.13;;;21.65;;
12631;SDS011;6381;45.748;12.106;2023-02-15T13:02:45;27.15;;;20.80;;
12631;SDS011;6381;45.748;12.106;2023-02-15T13:05:18;24.50;;;20.27;;
12631;SDS011;6381;45.748;12.106;2023-02-15T13:07:53;25.55;;;19.88;;
12631;SDS011;6381;45.748;12.106;2023-02-15T13:10:26;31.50;;;23.73;;
12631;SDS011;6381;45.748;12.106;2023-02-15T13:12:57;26.70;;;20.92;;
12631;SDS011;6381;45.748;12.106;2023-02-15T13:15:31;26.35;;;21.38;;
12631;SDS011;6381;45.748;12.106;2023-02-15T13:18:04;24.40;;;19.95;;
12631;SDS011;6381;45.748;12.106;2023-02-15T13:20:39;28.70;;;19.83;;
12631;SDS011;6381;45.748;12.106;2023-02-15T13:23:16;28.10;;;20.58;;
12631;SDS011;6381;45.748;12.106;2023-02-15T13:25:55;25.60;;;20.42;;
12631;SDS011;6381;45.748;12.106;2023-02-15T13:28:31;26.17;;;20.25;;
12631;SDS011;6381;45.748;12.106;2023-02-15T13:31:11;24.40;;;19.73;;
12631;SDS011;6381;45.748;12.106;2023-02-15T13:34:02;25.50;;;20.58;;
12631;SDS011;6381;45.748;12.106;2023-02-15T13:36:40;24.30;;;20.70;;
12631;SDS011;6381;45.748;12.106;2023-02-15T13:39:20;31.60;;;20.67;;
12631;SDS011;6381;45.748;12.106;2023-02-15T13:42:22;22.45;;;18.30;;
12631;SDS011;6381;45.748;12.106;2023-02-15T13:45:20;25.33;;;19.13;;
12631;SDS011;6381;45.748;12.106;2023-02-15T13:48:00;25.38;;;20.23;;
12631;SDS011;6381;45.748;12.106;2023-02-15T13:53:52;23.42;;;19.73;;
12631;SDS011;6381;45.748;12.106;2023-02-15T13:56:30;24.50;;;20.13;;
12631;SDS011;6381;45.748;12.106;2023-02-15T14:02:29;25.40;;;20.65;;
12631;SDS011;6381;45.748;12.106;2023-02-15T14:05:22;24.25;;;19.02;;
12631;SDS011;6381;45.748;12.106;2023-02-15T14:08:04;25.08;;;20.08;;
12631;SDS011;6381;45.748;12.106;2023-02-15T14:10:46;30.63;;;21.50;;
12631;SDS011;6381;45.748;12.106;2023-02-15T14:16:30;28.77;;;20.83;;
12631;SDS011;6381;45.748;12.106;2023-02-15T14:19:37;28.45;;;20.33;;
12631;SDS011;6381;45.748;12.106;2023-02-15T14:22:15;26.48;;;20.40;;
12631;SDS011;6381;45.748;12.106;2023-02-15T14:24:54;26.45;;;19.42;;
12631;SDS011;6381;45.748;12.106;2023-02-15T14:27:40;24.52;;;19.83;;
12631;SDS011;6381;45.748;12.106;2023-02-15T14:30:19;23.98;;;19.45;;
12631;SDS011;6381;45.748;12.106;2023-02-15T14:33:26;25.63;;;20.17;;
12631;SDS011;6381;45.748;12.106;2023-02-15T14:36:01;30.77;;;20.75;;
12631;SDS011;6381;45.748;12.106;2023-02-15T14:38:39;28.33;;;20.67;;
12631;SDS011;6381;45.748;12.106;2023-02-15T14:41:17;29.40;;;20.63;;
12631;SDS011;6381;45.748;12.106;2023-02-15T14:44:08;25.05;;;19.48;;
12631;SDS011;6381;45.748;12.106;2023-02-15T14:46:42;27.70;;;20.08;;
12631;SDS011;6381;45.748;12.106;2023-02-15T14:49:37;26.60;;;20.40;;
12631;SDS011;6381;45.748;12.106;2023-02-15T14:52:07;27.25;;;19.55;;
12631;SDS011;6381;45.748;12.106;2023-02-15T14:54:57;28.73;;;21.05;;
12631;SDS011;6381;45.748;12.106;2023-02-15T14:57:30;41.00;;;27.88;;
12631;SDS011;6381;45.748;12.106;2023-02-15T15:03:16;33.00;;;23.63;;
12631;SDS011;6381;45.748;12.106;2023-02-15T15:06:07;29.90;;;23.08;;
12631;SDS011;6381;45.748;12.106;2023-02-15T15:08:51;29.90;;;21.88;;
12631;SDS011;6381;45.748;12.106;2023-02-15T15:20:45;35.28;;;26.13;;
12631;SDS011;6381;45.748;12.106;2023-02-15T15:29:00;36.30;;;26.77;;
12631;SDS011;6381;45.748;12.106;2023-02-15T15:31:40;36.30;;;26.98;;
12631;SDS011;6381;45.748;12.106;2023-02-15T15:34:21;37.22;;;27.25;;
12631;SDS011;6381;45.748;12.106;2023-02-15T15:37:23;37.38;;;26.85;;
12631;SDS011;6381;45.748;12.106;2023-02-15T15:40:21;41.80;;;28.20;;
12631;SDS011;6381;45.748;12.106;2023-02-15T15:49:29;37.53;;;28.08;;
12631;SDS011;6381;45.748;12.106;2023-02-15T15:52:02;39.60;;;30.15;;
12631;SDS011;6381;45.748;12.106;2023-02-15T15:54:40;42.63;;;30.83;;
12631;SDS011;6381;45.748;12.106;2023-02-15T15:57:30;42.65;;;30.25;;
12631;SDS011;6381;45.748;12.106;2023-02-15T16:00:02;36.58;;;28.63;;
12631;SDS011;6381;45.748;12.106;2023-02-15T16:02:46;42.50;;;29.65;;
12631;SDS011;6381;45.748;12.106;2023-02-15T16:05:38;43.80;;;31.95;;
12631;SDS011;6381;45.748;12.106;2023-02-15T16:08:07;41.20;;;31.48;;
12631;SDS011;6381;45.748;12.106;2023-02-15T16:10:38;49.38;;;33.75;;
12631;SDS011;6381;45.748;12.106;2023-02-15T16:13:11;59.42;;;39.22;;
12631;SDS011;6381;45.748;12.106;2023-02-15T16:15:43;72.28;;;46.10;;
12631;SDS011;6381;45.748;12.106;2023-02-15T16:18:16;71.90;;;48.22;;